Date,TemperatureHighF,TemperatureAvgF,TemperatureLowF,DewpointHighF,DewpointAvgF,DewpointLowF,HumidityHigh,HumidityAvg,HumidityLow,PressureMaxIn,PressureMinIn,WindSpeedMaxMPH,WindSpeedAvgMPH,GustSpeedMaxMPH,PrecipitationSumIn
2013-1-1,53.9,51.6,46.0,53.3,49.9,42.4,99,94,74,30.10,29.93,18,2,20,0.92
2013-1-2,45.5,39.7,36.9,44.4,37.8,35.1,96,93,88,30.23,30.05,12,3,18,0.00
2013-1-3,44.1,35.9,26.0,35.1,31.1,24.8,96,84,59,30.41,30.20,11,3,14,0.00
2013-1-4,50.9,34.5,23.2,32.6,26.2,21.3,97,76,32,30.48,30.38,11,1,12,0.00
2013-1-5,49.1,37.3,26.8,39.9,31.5,25.4,98,82,44,30.45,30.29,5,1,7,0.07
2013-1-6,50.0,41.1,32.3,40.8,38.2,31.1,98,90,67,30.33,30.22,10,1,12,0.00
2013-1-7,54.7,38.5,23.8,37.1,31.5,22.6,98,79,44,30.41,30.29,10,2,12,0.00
2013-1-8,60.4,47.9,34.1,48.4,41.0,30.6,94,78,63,30.36,30.25,8,2,10,0.00
2013-1-9,57.9,54.0,48.9,57.1,51.7,46.5,97,92,84,30.39,30.29,7,3,10,0.03
2013-1-10,65.3,61.1,55.2,63.7,60.0,54.6,99,96,88,30.35,30.03,18,4,38,0.11
2013-1-11,66.8,64.1,62.1,65.1,62.7,60.9,99,95,87,30.14,30.06,14,4,22,0.40
2013-1-12,71.6,67.3,64.3,65.9,63.9,59.7,98,89,79,30.11,29.97,15,5,18,0.01
2013-1-13,70.7,64.7,50.8,65.6,62.0,49.7,97,91,81,30.08,29.92,16,7,25,1.48
2013-1-14,50.4,43.1,37.2,49.3,42.3,36.2,98,97,95,30.24,30.07,13,4,17,0.85
2013-1-15,47.9,45.2,41.6,47.6,44.7,41.1,99,98,98,30.13,29.94,8,2,10,0.66
2013-1-16,48.3,43.9,42.0,48.0,43.3,41.2,99,98,96,30.09,29.94,9,2,11,0.20
2013-1-17,43.6,38.8,33.1,43.1,37.4,32.3,99,94,86,30.39,29.89,16,5,24,0.34
2013-1-18,52.7,37.1,27.4,37.2,31.8,26.7,98,84,42,30.58,30.39,11,2,13,0.01
2013-1-19,56.9,38.5,26.3,37.9,31.4,25.6,99,80,38,30.46,30.25,10,1,13,0.01
2013-1-20,62.9,43.0,28.1,42.6,35.8,27.4,99,80,44,30.28,30.14,10,1,11,0.00
2013-1-21,53.2,39.8,29.4,44.6,30.8,21.1,99,74,40,30.26,30.13,19,3,20,0.00
2013-1-22,46.0,34.6,24.3,27.9,21.8,18.1,88,62,38,30.41,30.25,10,2,14,0.00
2013-1-23,54.9,42.2,26.8,43.6,33.1,23.7,92,72,45,30.43,30.22,12,1,16,0.00
2013-1-24,55.3,48.6,40.3,45.9,33.4,21.6,90,59,31,30.35,30.20,13,3,14,0.00
2013-1-25,63.4,50.8,40.1,55.7,38.6,20.0,98,65,44,30.31,30.08,16,4,24,0.15
2013-1-26,58.2,46.8,39.2,48.6,39.0,33.3,98,77,40,30.33,30.16,10,2,13,0.00
2013-1-27,57.8,50.6,45.6,43.1,38.4,35.2,78,63,47,30.39,30.29,10,2,15,0.00
2013-1-28,64.1,53.1,44.9,56.0,47.8,38.4,97,83,61,30.35,30.22,12,2,15,0.00
2013-1-29,69.3,59.6,44.3,65.0,57.8,43.5,99,94,84,30.22,29.83,16,3,23,0.01
2013-1-30,69.9,56.0,38.2,66.8,52.9,29.6,98,89,71,30.00,29.60,26,8,34,2.35
2013-1-31,50.7,39.2,31.6,30.9,28.7,25.4,87,68,38,30.23,30.00,15,4,22,0.00
2013-2-1,43.0,35.2,24.2,32.7,19.7,9.0,87,56,26,30.47,30.19,14,4,19,0.00
2013-2-2,52.4,35.1,21.5,41.7,27.5,19.2,98,77,40,30.40,30.16,11,1,14,0.09
2013-2-3,57.7,43.7,31.5,41.5,33.4,28.7,99,72,35,30.21,30.08,14,3,23,0.01
2013-2-4,51.6,40.1,28.0,39.1,32.7,26.4,96,77,45,30.16,30.00,9,1,13,0.00
2013-2-5,55.2,49.4,41.0,52.6,46.2,36.5,98,89,75,30.07,29.97,7,1,10,0.00
2013-2-6,66.6,51.5,41.1,50.0,42.6,33.1,99,77,29,30.21,30.07,7,1,10,0.02
2013-2-7,51.5,48.0,45.6,48.7,46.3,41.7,97,94,70,30.11,29.93,11,3,14,0.19
2013-2-8,53.2,46.7,31.3,51.2,44.2,29.5,98,91,73,30.27,29.95,15,3,19,0.12
2013-2-9,62.5,42.8,28.4,42.1,34.6,27.4,98,77,34,30.34,30.18,11,2,14,0.01
2013-2-10,57.3,53.4,47.3,56.6,47.1,37.1,99,81,57,30.20,29.98,14,4,23,1.35
2013-2-11,57.5,53.2,47.4,57.2,52.5,47.1,99,97,92,30.16,29.98,16,2,23,0.31
2013-2-12,48.1,45.3,42.6,47.7,43.1,38.7,99,92,70,30.18,29.80,13,3,17,0.55
2013-2-13,48.3,43.7,31.6,47.7,41.1,30.7,99,91,80,30.06,29.74,20,4,24,0.03
2013-2-14,56.7,42.9,32.3,41.9,36.8,31.0,98,81,49,30.14,30.05,7,1,14,0.00
2013-2-15,62.3,45.9,29.0,43.7,36.1,28.3,99,72,40,30.16,30.03,12,3,19,0.00
2013-2-16,44.6,37.3,27.0,36.4,22.5,14.6,74,57,34,30.26,30.05,21,6,25,0.00
2013-2-17,50.2,33.4,18.1,26.1,19.7,13.0,94,62,25,30.36,30.25,11,1,12,0.00
2013-2-18,60.2,45.8,28.7,36.9,30.5,22.0,86,58,36,30.34,29.97,22,6,27,0.00
2013-2-19,56.3,47.7,37.6,48.6,34.9,21.7,98,66,28,30.25,29.97,18,4,27,0.44
2013-2-20,46.1,36.7,24.5,30.3,22.1,13.3,95,60,27,30.28,30.16,12,3,14,0.00
2013-2-21,62.9,46.4,30.2,47.2,32.0,20.8,96,63,27,30.20,29.89,12,3,17,0.92
2013-2-22,51.6,48.9,45.5,50.1,47.9,45.0,98,96,94,30.10,29.94,11,3,18,0.57
2013-2-23,59.0,48.0,38.8,52.8,46.0,38.0,98,93,77,30.00,29.87,9,2,11,0.10
2013-2-24,64.0,46.0,30.3,43.2,37.1,29.8,99,76,39,30.09,29.94,10,2,12,0.16
2013-2-25,55.2,48.3,42.4,50.8,43.1,34.2,96,83,61,29.98,29.58,14,4,21,0.07
2013-2-26,51.0,46.8,43.3,49.7,41.2,34.7,98,82,68,29.85,29.50,19,6,25,0.18
2013-2-27,58.5,47.7,35.6,38.9,35.7,32.4,89,64,42,29.96,29.85,18,5,23,0.11
2013-2-28,44.6,39.5,36.3,34.7,30.6,27.6,85,71,57,30.08,29.93,16,5,20,0.06
2013-3-1,42.5,38.2,34.8,32.7,30.3,27.9,90,73,60,30.11,30.03,13,3,16,0.04
2013-3-2,37.9,35.0,32.1,31.4,29.1,26.9,87,79,67,30.16,30.06,14,4,18,0.02
2013-3-3,45.4,34.2,26.4,27.6,22.1,15.7,86,64,31,30.20,30.11,18,4,20,0.10
2013-3-4,62.1,44.1,25.3,46.4,30.2,22.5,95,63,32,30.21,29.97,19,4,20,0.34
2013-3-5,66.0,51.3,31.8,58.3,46.1,29.2,95,82,68,30.06,29.73,21,7,29,0.08
2013-3-6,43.9,36.4,28.8,30.6,26.9,23.0,92,69,57,30.30,30.04,17,6,25,0.05
2013-3-7,58.3,39.9,24.1,35.1,30.0,22.6,96,72,35,30.36,30.25,10,2,13,0.01
2013-3-8,64.7,44.5,28.4,37.8,29.6,17.3,97,64,18,30.38,30.23,9,2,13,0.00
2013-3-9,67.8,54.6,37.1,38.4,34.0,29.7,80,49,30,30.29,30.09,17,3,19,0.00
2013-3-10,74.1,63.1,52.7,52.0,43.3,34.0,69,49,36,30.11,29.94,20,6,28,0.00
2013-3-11,62.1,52.1,36.4,54.7,47.5,35.1,97,85,67,29.97,29.83,17,5,23,0.82
2013-3-12,58.0,43.6,33.5,37.5,33.3,30.6,94,70,38,30.19,29.97,18,4,20,0.00
2013-3-13,55.2,42.3,28.9,36.1,26.6,20.3,98,60,30,30.38,30.18,17,5,22,0.00
2013-3-14,58.0,41.8,26.2,34.2,23.5,15.8,83,53,20,30.46,30.28,12,3,15,0.00
2013-3-15,74.8,54.0,29.7,47.5,38.8,28.2,97,62,32,30.29,29.99,15,3,23,0.00
2013-3-16,76.0,62.5,50.5,48.2,44.8,41.0,82,55,33,30.04,29.89,19,5,23,0.00
2013-3-17,69.6,60.4,47.4,57.0,52.4,46.2,98,76,55,30.02,29.88,17,3,21,0.00
2013-3-18,73.8,60.0,49.7,64.2,56.8,48.9,98,90,69,29.90,29.76,17,5,28,0.06
2013-3-19,63.0,52.0,38.8,53.0,38.0,27.7,94,64,28,30.12,29.90,16,5,18,0.00
2013-3-20,59.6,49.1,37.8,36.7,26.9,19.1,90,44,27,30.19,29.99,15,4,22,0.00
2013-3-21,49.7,40.7,31.5,30.9,21.6,11.6,80,50,23,30.09,29.96,13,3,17,0.00
2013-3-22,50.5,42.5,36.3,44.4,38.5,25.0,94,86,50,30.07,29.96,9,2,14,0.15
2013-3-23,59.0,51.8,45.6,55.1,49.3,43.6,98,91,84,29.97,29.65,13,3,23,0.84
2013-3-24,63.5,52.1,40.6,56.8,46.9,29.0,97,83,61,29.84,29.55,25,6,35,0.54
2013-3-25,45.1,38.8,33.9,30.2,25.4,22.2,69,59,43,30.19,29.84,25,8,26,0.00
2013-3-26,41.0,36.3,30.5,28.8,26.2,24.4,81,67,55,30.38,30.17,18,4,21,0.00
2013-3-27,55.3,40.4,24.2,33.2,27.9,22.6,96,65,33,30.43,30.30,11,2,17,0.00
2013-3-28,64.2,45.8,28.5,37.5,31.5,27.3,97,65,28,30.39,30.26,13,2,18,0.00
2013-3-29,70.1,53.8,33.1,48.5,37.5,32.1,98,61,28,30.34,30.16,18,2,20,0.00
2013-3-30,70.3,57.7,43.7,57.8,50.0,41.2,98,77,47,30.18,29.99,10,1,14,0.35
2013-3-31,68.1,60.1,54.6,59.3,56.7,53.4,98,89,70,30.00,29.86,18,3,27,0.02
2013-4-1,71.8,60.7,48.6,57.5,49.4,39.8,99,71,33,30.08,29.88,12,3,17,0.01
2013-4-2,67.9,53.2,42.0,46.2,39.8,32.2,97,64,38,30.22,30.07,12,4,17,0.00
2013-4-3,53.7,48.3,45.1,45.2,36.5,28.2,96,66,44,30.18,30.08,12,5,17,0.34
2013-4-4,47.5,46.0,43.5,46.6,44.9,42.7,97,96,93,30.10,29.96,12,4,17,0.56
2013-4-5,65.7,50.8,41.3,48.6,43.0,38.7,98,78,40,30.13,29.98,15,4,20,0.05
2013-4-6,73.9,55.7,35.3,48.5,40.7,34.5,99,64,28,30.18,30.06,13,2,19,0.00
2013-4-7,75.6,59.5,43.2,54.1,49.0,41.3,98,71,46,30.17,30.02,15,3,22,0.00
2013-4-8,77.9,65.7,51.4,61.5,55.8,49.6,98,73,47,30.10,30.00,18,4,22,0.00
2013-4-9,82.4,69.6,55.1,62.0,58.5,53.4,96,70,45,30.15,30.00,15,4,19,0.00
2013-4-10,83.4,70.1,54.2,63.9,58.8,53.1,98,70,42,30.06,29.86,19,4,23,0.00
2013-4-11,77.5,66.8,59.5,68.4,61.9,56.8,98,85,68,29.88,29.57,20,4,28,1.04
2013-4-12,66.9,55.4,44.5,57.7,46.4,41.1,95,75,40,30.00,29.69,16,4,18,0.00
2013-4-13,75.9,57.5,40.1,51.5,43.8,39.2,99,67,27,30.09,29.97,14,2,16,0.00
2013-4-14,57.6,53.6,45.2,54.6,51.0,44.1,96,91,80,30.06,29.84,13,2,20,0.27
2013-4-15,70.5,63.3,56.6,62.6,59.2,54.6,97,87,75,30.07,29.90,10,2,15,0.01
2013-4-16,80.7,70.2,62.5,69.4,64.9,59.4,94,84,67,30.17,30.07,11,2,17,0.00
2013-4-17,84.5,73.5,62.2,70.6,66.8,61.3,99,81,60,30.17,30.01,14,3,16,0.00
2013-4-18,80.0,72.4,61.9,66.8,63.2,59.2,92,74,53,30.03,29.75,21,6,29,0.00
2013-4-19,72.2,52.8,41.5,66.9,48.4,37.3,96,86,62,30.16,29.70,22,6,32,0.54
2013-4-20,63.1,48.0,31.7,42.7,36.5,30.7,98,70,33,30.27,30.17,15,3,18,0.00
2013-4-21,70.3,54.9,36.1,47.9,40.9,35.3,98,64,34,30.32,30.19,10,2,16,0.00
2013-4-22,72.6,60.8,49.5,56.4,48.9,42.1,90,66,48,30.27,30.10,11,3,15,0.00
2013-4-23,75.0,63.0,51.1,56.2,50.7,44.0,94,66,49,30.19,30.03,11,3,15,0.00
2013-4-24,66.3,58.2,49.6,63.8,55.7,46.5,98,92,81,30.22,30.03,14,3,20,0.18
2013-4-25,66.8,52.5,39.1,46.4,41.7,35.6,96,71,32,30.36,30.21,13,3,16,0.00
2013-4-26,76.5,56.7,35.9,55.7,43.3,35.1,99,68,27,30.38,30.21,9,1,13,0.00
2013-4-27,76.8,66.4,56.8,64.5,57.7,50.3,96,75,52,30.25,30.00,15,3,20,0.00
2013-4-28,69.8,63.5,0.0,67.1,62.1,56.2,99,94,86,30.06,29.94,11,2,17,0.74
2013-4-29,75.7,63.6,53.3,60.8,56.9,51.3,99,82,44,30.03,29.91,7,1,12,0.00
2013-4-30,80.1,65.1,48.2,65.9,56.7,47.6,99,77,45,30.02,29.94,6,1,12,0.00
2013-5-1,70.7,67.0,61.4,62.8,59.8,55.5,89,78,69,30.11,29.98,16,4,17,0.00
2013-5-2,66.7,63.9,60.8,62.0,58.8,55.4,89,84,75,30.13,30.04,11,4,15,0.00
2013-5-3,70.9,64.3,59.3,60.2,58.4,56.9,96,82,63,30.04,29.87,16,4,21,0.43
2013-5-4,59.3,47.0,41.6,58.2,44.0,40.6,97,90,71,29.99,29.87,18,3,19,1.30
2013-5-5,58.4,47.3,37.8,51.0,45.0,37.3,99,92,66,29.93,29.82,13,2,15,0.16
2013-5-6,60.1,50.7,45.7,54.5,48.8,44.6,98,94,81,29.94,29.83,12,2,19,0.39
2013-5-7,69.5,56.4,46.4,57.6,51.0,45.8,99,84,54,30.03,29.91,8,1,14,0.08
2013-5-8,77.3,62.2,45.6,62.6,55.1,45.1,99,80,52,30.09,30.01,9,1,12,0.00
2013-5-9,81.3,66.3,50.5,64.2,57.8,50.0,99,78,45,30.13,30.02,9,1,11,0.00
2013-5-10,73.6,64.6,57.8,61.9,59.2,57.0,99,84,60,30.09,29.93,13,2,19,0.00
2013-5-11,76.5,64.8,55.9,66.9,61.5,55.3,99,90,67,30.01,29.90,11,2,21,0.00
2013-5-12,67.8,56.8,42.8,55.6,45.8,38.6,99,71,35,30.16,30.00,13,3,16,0.00
2013-5-13,71.0,55.1,37.1,51.2,42.9,36.1,98,69,35,30.30,30.15,11,2,14,0.00
2013-5-14,80.5,63.7,44.6,60.2,53.0,43.8,99,72,43,30.25,30.10,13,2,16,0.00
2013-5-15,83.9,67.5,52.1,62.3,57.4,51.3,99,75,40,30.19,30.02,10,1,19,0.00
2013-5-16,80.1,69.3,60.2,64.6,59.6,48.8,98,75,34,30.07,29.97,12,2,16,0.00
2013-5-17,77.1,69.9,63.6,68.4,66.0,61.8,99,88,70,30.07,29.94,19,2,19,1.18
2013-5-18,79.3,72.0,66.7,73.8,70.2,65.9,99,94,81,30.05,29.95,11,2,14,2.19
2013-5-19,80.7,72.5,63.5,73.7,69.9,62.9,98,92,73,30.07,29.97,17,2,19,0.29
2013-5-20,81.9,70.0,59.0,72.3,66.4,58.7,100,89,68,30.09,29.97,7,1,12,0.01
2013-5-21,86.0,74.3,61.8,72.2,67.8,61.5,100,82,56,30.01,29.84,11,2,15,0.00
2013-5-22,81.5,71.6,64.7,71.3,67.4,61.5,99,87,64,29.94,29.84,14,2,33,0.13
2013-5-23,83.8,71.6,59.4,69.5,63.3,58.8,100,78,44,30.03,29.91,12,2,18,0.00
2013-5-24,75.0,65.0,51.2,61.3,55.6,48.5,96,74,40,30.23,30.02,15,4,20,0.00
2013-5-25,79.6,62.4,46.0,61.8,52.0,45.3,99,73,37,30.31,30.18,11,1,14,0.00
2013-5-26,84.1,67.1,50.2,66.5,57.2,49.4,99,75,40,30.26,30.12,5,1,10,0.00
2013-5-27,84.2,69.6,56.8,71.1,62.5,56.1,99,81,46,30.20,30.06,11,2,17,0.00
2013-5-28,84.6,72.6,58.0,68.2,63.3,57.4,99,75,54,30.15,30.04,10,2,13,0.00
2013-5-29,85.2,75.4,61.4,71.9,65.7,58.8,94,73,55,30.15,30.03,10,3,14,0.00
2013-5-30,83.3,76.5,69.0,73.0,68.1,63.6,87,76,62,30.15,30.02,10,3,14,0.00
2013-5-31,84.6,77.0,70.6,72.1,68.3,66.4,88,75,58,30.12,29.99,13,4,16,0.00
2013-6-1,84.0,74.7,66.8,75.4,69.8,64.9,97,85,70,30.03,29.92,13,3,17,0.11
2013-6-2,82.8,75.3,68.6,72.0,69.2,65.7,99,83,59,29.97,29.86,10,2,12,0.00
2013-6-3,82.4,73.8,64.8,71.1,68.0,63.9,99,83,60,29.96,29.87,14,2,14,0.00
2013-6-4,86.4,73.8,61.1,72.9,66.9,60.5,99,81,55,30.00,29.91,7,1,10,0.00
2013-6-5,84.7,71.4,67.3,76.3,69.2,65.8,98,93,72,29.96,29.83,12,2,19,0.26
2013-6-6,80.5,72.8,64.9,73.1,69.3,64.6,99,90,74,29.89,29.72,5,1,10,0.04
2013-6-7,79.2,70.1,64.4,73.1,68.6,63.8,99,95,77,29.88,29.69,20,2,29,0.03
2013-6-8,82.7,71.9,62.4,73.1,68.1,62.1,100,89,63,30.02,29.86,5,1,9,0.01
2013-6-9,81.9,72.9,69.6,74.8,70.4,68.1,98,92,73,30.05,29.92,15,3,24,0.39
2013-6-10,85.9,75.9,68.4,74.1,69.9,67.2,98,83,55,30.00,29.91,11,3,15,0.31
2013-6-11,90.5,80.0,70.8,77.1,73.7,69.9,98,83,58,30.05,29.96,10,2,15,0.00
2013-6-12,91.3,79.8,67.9,77.8,73.2,67.6,100,82,56,30.07,29.96,7,1,11,0.00
2013-6-13,89.3,78.7,67.4,77.8,73.3,67.0,100,85,65,29.97,29.77,18,3,24,0.01
2013-6-14,83.0,73.4,63.0,71.7,65.3,61.7,99,78,52,29.99,29.86,13,3,15,0.00
2013-6-15,85.9,73.1,58.5,72.3,65.3,57.9,99,79,51,30.08,29.98,7,1,13,0.00
2013-6-16,88.1,75.8,64.1,76.3,69.0,62.9,97,81,61,30.10,29.95,15,2,16,0.00
2013-6-20,84.8,78.7,68.0,72.2,69.4,67.1,97,75,59,30.15,30.07,9,2,11,0.00
2013-6-21,84.9,75.0,66.9,72.3,68.2,65.5,98,81,57,30.21,30.09,7,1,11,0.00
2013-6-22,84.5,74.0,64.1,70.4,66.6,63.5,99,80,53,30.19,30.05,6,1,11,0.00
2013-6-23,85.4,73.8,63.2,73.5,68.9,62.6,99,86,63,30.17,30.05,9,1,11,0.00
2013-6-24,81.2,74.2,68.8,75.0,71.9,67.9,99,93,79,30.18,30.08,10,2,13,0.00
2013-6-25,87.6,76.3,67.3,76.7,72.4,67.0,100,89,66,30.13,30.00,9,1,19,0.25
2013-6-26,89.1,78.1,68.3,77.3,72.9,68.0,100,86,60,30.06,29.91,15,2,17,0.00
2013-6-27,91.3,79.4,68.6,80.3,75.1,67.7,99,88,67,29.99,29.81,14,2,16,0.12
2013-6-28,88.4,79.7,72.8,78.7,74.4,71.9,99,85,62,29.85,29.68,16,2,27,0.14
2013-6-29,86.0,76.7,67.3,75.0,70.0,61.8,99,83,45,29.73,29.65,9,2,16,0.00
2013-6-30,86.1,74.1,62.2,71.9,66.5,59.6,99,80,43,29.77,29.69,5,1,9,0.00
2013-7-1,84.0,72.0,63.6,72.4,66.9,62.9,99,85,55,29.89,29.74,5,1,8,0.00
2013-7-2,84.6,73.4,61.8,72.3,67.2,61.2,99,83,54,30.03,29.88,7,1,13,0.00
2013-7-3,78.6,71.8,65.3,73.6,69.5,64.2,99,92,82,30.09,30.00,11,2,20,0.99
2013-7-4,75.6,72.0,69.8,72.6,70.1,68.4,97,94,82,30.07,29.99,15,4,31,0.31
2013-7-5,74.4,71.9,69.7,72.5,70.4,68.4,98,95,90,30.13,30.04,11,3,15,0.12
2013-7-6,73.3,71.4,70.1,72.4,70.7,69.5,99,98,96,30.11,30.04,6,1,9,0.49
2013-7-7,81.1,75.0,71.1,74.8,72.6,70.8,100,93,79,30.14,30.06,9,2,11,0.06
2013-7-8,83.1,74.2,68.4,76.8,72.3,67.8,99,94,79,30.17,30.09,11,1,11,0.02
2013-7-9,87.0,77.6,69.5,79.4,74.3,69.2,100,91,70,30.17,30.04,6,1,9,0.00
2013-7-10,89.2,77.0,69.5,80.6,73.4,69.2,100,90,66,30.08,29.93,9,1,18,0.13
2013-7-11,84.7,75.7,69.7,76.8,72.6,69.1,99,91,73,30.00,29.86,10,1,16,0.03
2013-7-12,86.4,76.7,69.1,76.9,72.5,67.6,100,88,65,29.93,29.85,11,2,14,0.00
2013-7-13,82.4,73.6,63.8,74.5,69.4,63.2,99,87,73,30.02,29.91,10,2,13,0.00
2013-7-14,84.1,76.5,69.4,76.5,72.2,68.3,98,87,69,30.10,29.99,10,2,17,0.14
2013-7-15,86.1,77.3,71.9,74.3,72.2,70.7,98,85,62,30.23,30.10,13,3,15,0.03
2013-7-16,87.3,77.2,70.6,75.6,72.4,70.0,98,87,64,30.27,30.19,9,2,13,0.00
2013-7-17,91.8,77.9,67.8,78.3,72.3,67.5,100,85,52,30.28,30.12,9,1,19,0.08
2013-7-18,86.6,78.4,68.8,76.8,71.4,68.2,99,81,60,30.17,30.03,6,1,10,0.01
2013-7-19,0.0,0.0,0.0,74.7,74.7,74.7,0,0,100,30.13,29.98,0,0,0,0.00
2013-7-20,87.4,35.6,0.0,75.6,74.4,71.5,96,37,65,30.05,29.91,9,1,13,32.02
2013-7-21,85.1,74.5,69.5,77.6,72.1,68.8,99,93,71,30.03,29.93,13,2,19,0.17
2013-7-22,80.6,73.4,68.3,76.3,71.5,67.8,99,94,83,30.00,29.88,10,2,14,0.50
2013-7-23,77.8,70.9,68.7,74.0,70.0,67.9,99,97,84,29.99,29.87,14,1,18,0.23
2013-7-24,84.5,74.6,68.6,77.2,72.2,68.0,100,93,73,29.92,29.81,11,1,16,0.12
2013-7-25,83.7,75.0,67.1,72.7,69.2,66.3,100,84,58,30.00,29.85,9,2,12,0.06
2013-7-26,86.4,74.4,62.7,73.0,68.7,62.1,99,84,55,30.04,29.95,5,1,10,0.03
2013-7-27,83.9,73.9,65.9,73.3,69.6,65.6,99,88,61,29.98,29.89,6,1,10,0.03
2013-7-28,85.3,76.4,69.0,75.9,71.6,68.4,99,86,66,30.04,29.91,5,1,6,0.01
2013-7-29,84.6,73.8,65.5,72.4,67.9,62.9,98,83,55,30.16,30.02,7,1,10,0.01
2013-7-30,88.4,75.4,61.1,78.0,69.3,60.7,99,83,58,30.19,30.06,4,1,7,0.00
2013-7-31,84.4,76.3,69.1,78.2,73.9,67.9,99,93,79,30.11,29.93,10,2,16,0.43
2013-8-1,85.4,76.2,68.8,76.7,72.3,68.0,99,89,66,30.01,29.92,10,2,16,1.30
2013-8-2,86.7,75.5,65.3,74.6,69.7,65.0,100,84,54,30.02,29.94,6,1,9,0.00
2013-8-3,86.2,75.0,64.4,78.3,71.8,64.1,100,91,73,30.06,29.98,9,1,14,0.06
2013-8-4,86.1,76.9,69.4,76.6,73.2,68.5,100,89,69,30.06,29.97,13,2,15,1.36
2013-8-5,84.7,74.6,67.0,74.8,70.3,66.4,99,88,66,30.05,29.96,8,1,11,0.00
2013-8-6,85.3,75.1,70.0,78.5,73.2,69.4,99,94,75,30.00,29.92,11,1,17,0.19
2013-8-7,87.0,76.0,70.4,79.7,73.7,69.7,100,93,74,30.01,29.92,16,1,23,0.07
2013-8-8,86.5,75.8,67.7,79.5,72.8,67.4,99,91,69,30.01,29.93,12,1,15,0.21
2013-8-9,87.7,77.5,69.6,79.5,74.0,69.3,100,90,70,30.06,29.97,11,2,16,0.00
2013-8-10,87.0,78.1,71.0,78.6,74.5,70.7,100,89,69,30.11,30.03,11,1,12,0.00
2013-8-11,88.4,77.7,69.4,79.1,73.7,69.1,100,88,66,30.15,30.05,8,1,10,0.03
2013-8-12,87.1,77.8,70.6,79.2,74.5,70.3,100,90,71,30.10,29.98,10,1,16,0.44
2013-8-13,86.6,76.4,70.7,77.3,73.3,70.1,99,91,69,30.01,29.88,8,2,12,0.03
2013-8-14,79.7,72.6,66.0,72.5,70.5,65.4,99,93,72,29.99,29.90,9,2,13,0.02
2013-8-15,75.6,68.7,64.0,70.8,66.1,63.3,99,92,81,30.04,29.95,10,2,13,0.00
2013-8-16,70.3,67.2,65.2,66.8,64.8,63.1,95,92,88,30.08,29.99,10,2,12,0.00
2013-8-17,68.1,66.6,64.7,66.0,64.9,63.9,98,94,91,30.10,30.02,7,1,10,0.02
2013-8-18,73.1,69.7,66.3,71.0,68.4,65.4,99,96,91,30.14,30.05,5,1,10,0.62
2013-8-19,84.2,74.9,68.9,76.1,71.9,68.6,99,91,68,30.10,29.99,9,2,11,0.02
2013-8-20,83.7,76.3,71.2,76.4,73.4,70.9,99,91,75,30.12,30.02,9,1,11,0.01
2013-8-21,86.8,76.8,68.8,76.6,72.5,68.5,100,88,67,30.17,30.06,9,1,14,0.00
2013-8-22,87.4,77.4,68.7,76.9,72.9,68.4,99,87,58,30.14,30.01,5,1,10,0.00
2013-8-23,87.5,76.5,67.3,78.8,72.6,67.0,100,89,63,30.08,29.97,11,0,16,0.05
2013-8-24,85.6,76.9,69.9,77.0,72.9,69.4,99,88,70,30.19,30.02,9,2,11,0.00
2013-8-25,82.6,74.8,65.8,72.0,69.1,65.2,98,83,65,30.29,30.19,9,2,13,0.00
2013-8-26,81.8,70.2,59.6,69.4,64.0,59.3,100,83,56,30.28,30.15,9,1,16,0.00
2013-8-27,84.8,70.7,58.0,73.5,65.3,57.7,100,85,54,30.16,30.05,5,1,10,0.00
2013-8-28,86.9,74.4,62.8,76.1,69.4,62.5,100,86,61,30.08,30.00,7,1,9,0.00
2013-8-29,88.5,76.7,65.8,77.2,71.6,65.5,100,86,63,30.06,29.94,9,1,12,0.00
2013-8-30,89.9,76.6,68.2,79.5,74.0,67.9,100,92,67,30.00,29.89,16,1,27,0.19
2013-8-31,91.7,79.7,70.4,79.1,74.8,70.1,100,86,59,29.94,29.83,6,1,14,0.00
2013-9-1,90.1,76.7,68.8,79.7,73.7,68.5,100,91,65,29.92,29.83,22,1,33,0.27
2013-9-2,83.3,73.9,67.0,77.2,72.3,66.2,100,95,77,30.02,29.85,12,1,21,0.85
2013-9-3,87.2,76.6,66.7,77.3,72.6,66.4,100,89,61,29.98,29.88,8,2,12,0.00
2013-9-4,86.5,73.1,61.9,73.0,67.3,61.8,100,84,53,30.09,29.97,8,1,10,0.01
2013-9-5,85.9,72.3,60.6,74.0,66.9,60.3,100,85,55,30.14,30.06,6,1,12,0.01
2013-9-6,87.5,73.1,60.7,75.9,68.5,60.4,100,87,60,30.13,30.02,7,1,10,0.00
2013-9-7,87.6,74.5,64.8,74.7,69.5,64.5,100,86,55,30.10,29.99,5,1,7,0.01
2013-9-8,88.5,74.5,61.8,77.1,69.2,61.5,100,86,55,30.02,29.94,6,1,9,0.00
2013-9-9,89.9,76.4,65.7,77.7,71.8,65.5,100,88,57,30.06,29.97,5,0,7,0.00
2013-9-10,88.1,76.4,68.8,79.2,72.8,68.5,100,90,62,30.17,30.06,7,1,12,0.01
2013-9-11,87.4,74.9,65.3,75.5,69.5,65.1,100,85,54,30.20,30.08,8,1,8,0.00
2013-9-12,88.3,74.8,62.1,75.0,68.6,61.8,100,84,53,30.09,29.92,6,1,9,0.02
2013-9-13,83.6,72.6,58.2,72.1,66.4,56.8,100,83,55,29.93,29.84,13,2,15,0.00
2013-9-14,77.4,63.3,51.0,62.9,56.2,50.5,100,81,45,30.04,29.93,10,1,12,0.00
2013-9-15,85.8,67.1,53.6,69.7,61.1,53.3,100,85,44,30.12,30.04,9,1,14,0.01
2013-9-16,86.2,70.1,58.5,71.8,64.1,58.2,100,84,48,30.15,30.05,9,1,11,0.00
2013-9-17,84.3,71.1,58.3,73.4,66.4,58.0,100,86,67,30.16,30.06,8,2,12,0.01
2013-9-18,81.8,71.4,65.4,71.4,66.2,62.6,97,84,66,30.18,30.07,12,2,15,0.00
2013-9-19,84.5,71.6,60.5,69.7,65.5,60.0,100,83,55,30.16,30.04,7,1,11,0.00
2013-9-20,84.9,72.9,60.0,71.8,66.8,59.7,100,83,59,30.06,29.85,9,2,13,0.07
2013-9-21,73.8,69.6,60.4,73.0,68.7,60.1,99,97,93,29.85,29.75,15,3,21,0.91
2013-9-22,77.5,63.3,50.6,63.9,58.4,50.3,100,86,46,29.88,29.80,12,2,15,0.01
2013-9-23,82.7,68.2,55.3,68.5,62.3,54.6,99,83,55,29.96,29.86,10,2,12,0.01
2013-9-24,71.7,68.4,65.7,69.3,66.9,64.8,99,95,90,29.96,29.76,13,2,23,0.03
2013-9-25,80.3,70.3,65.6,71.9,67.6,64.8,98,92,73,29.86,29.76,6,2,10,0.00
2013-9-26,79.0,69.0,60.4,68.7,64.9,59.8,99,88,65,30.00,29.84,9,2,12,0.00
2013-9-27,79.8,65.9,56.4,66.8,60.1,55.8,100,84,49,30.12,29.99,10,1,12,0.00
2013-9-28,77.1,66.4,54.6,63.1,58.7,53.6,99,78,53,30.20,30.07,10,2,13,0.00
2013-9-29,76.4,64.3,51.5,65.7,59.0,51.0,99,84,56,30.13,30.00,8,1,12,0.00
2013-9-30,76.2,64.5,58.1,64.0,60.3,57.5,99,88,55,30.08,29.97,10,1,14,0.00
2013-10-1,82.7,68.3,57.9,70.2,64.2,57.3,100,88,57,30.13,30.02,7,1,11,0.00
2013-10-2,82.2,69.1,57.7,70.1,64.2,57.4,100,87,52,30.15,30.04,6,1,10,0.00
2013-10-3,80.9,69.5,59.5,68.8,64.8,59.2,100,87,63,30.11,30.03,11,2,13,0.00
2013-10-4,83.7,70.4,59.0,72.1,65.8,58.7,100,87,62,30.13,30.04,8,1,11,0.00
2013-10-5,85.9,72.4,61.1,71.2,66.6,60.8,100,84,56,30.09,29.96,10,1,12,0.00
2013-10-6,79.4,70.2,57.5,72.0,67.6,56.1,99,92,73,29.96,29.82,16,2,22,0.61
2013-10-7,70.6,59.2,49.3,57.0,53.6,48.2,99,84,54,30.03,29.89,15,4,18,0.05
2013-10-8,77.0,62.7,47.2,67.0,57.1,46.4,99,83,65,30.08,29.98,10,2,17,0.01
2013-10-9,74.6,66.1,61.1,65.6,60.3,56.1,98,82,65,30.17,30.07,9,2,12,0.00
2013-10-10,79.1,65.6,55.4,66.2,61.2,55.1,100,87,57,30.14,30.01,8,1,11,0.00
2013-10-11,80.1,64.3,53.0,66.9,59.3,52.7,100,86,50,30.09,29.99,10,1,11,0.00
2013-10-12,80.2,64.3,50.6,66.9,58.9,50.3,100,85,51,30.10,30.01,10,1,13,0.01
2013-10-13,80.5,65.8,54.7,65.2,59.6,54.4,100,83,52,30.20,30.09,11,1,14,0.00
2013-10-14,79.0,64.9,54.4,66.6,60.4,54.0,100,87,63,30.21,30.08,12,1,15,0.00
2013-10-15,72.1,63.6,54.7,64.7,60.4,54.1,100,90,69,30.12,30.01,5,1,6,0.01
2013-10-16,72.2,65.0,56.5,67.8,62.9,56.2,100,93,80,30.05,29.93,8,1,11,0.09
2013-10-17,71.5,65.8,58.3,68.2,64.3,57.1,100,95,84,29.98,29.89,10,2,14,0.53
2013-10-18,67.6,57.4,46.3,57.0,52.9,46.0,100,86,59,30.07,29.95,12,1,13,0.00
2013-10-19,67.9,57.9,48.6,60.2,55.4,47.2,99,92,70,30.03,29.94,10,1,14,0.02
2013-10-20,68.0,50.5,40.0,51.6,44.5,39.5,99,83,44,30.10,30.01,7,1,11,0.01
2013-10-21,67.2,52.5,37.6,57.4,48.0,37.2,100,87,56,30.14,30.01,6,1,9,0.00
2013-10-22,73.3,59.7,47.2,58.4,53.3,46.4,99,82,44,30.03,29.88,11,1,15,0.01
2013-10-23,61.2,50.9,38.2,51.2,44.1,37.2,99,80,46,30.14,29.91,18,3,19,0.00
2013-10-24,66.0,47.7,34.1,49.5,41.6,33.6,99,82,47,30.27,30.13,9,1,12,0.00
2013-10-25,55.2,43.0,30.7,43.1,33.1,28.7,96,72,37,30.47,30.27,15,3,20,0.00
2013-10-26,63.3,43.5,28.3,45.0,35.1,27.6,98,77,35,30.36,30.18,7,1,12,0.00
2013-10-27,72.5,55.5,39.6,56.1,48.8,38.7,99,81,50,30.18,30.09,9,2,14,0.08
2013-10-28,67.6,58.5,53.3,62.7,57.1,52.8,99,95,78,30.25,30.12,6,0,9,0.07
2013-10-29,77.2,62.2,52.6,64.5,58.3,52.3,100,89,58,30.31,30.19,12,1,13,0.00
2013-10-30,76.6,62.9,52.8,63.8,58.3,52.5,100,87,56,30.28,30.11,10,1,15,0.00
2013-10-31,73.6,66.0,57.7,68.3,63.0,56.4,97,90,81,30.12,29.75,23,6,28,0.13
2013-11-1,72.4,62.9,45.4,67.8,56.8,44.3,98,82,50,29.88,29.74,22,3,27,0.52
2013-11-2,67.2,53.2,41.7,52.7,43.8,38.4,100,74,37,30.13,29.87,19,2,21,0.00
2013-11-3,62.6,46.6,34.3,46.4,40.0,33.5,99,81,43,30.30,30.13,11,2,19,0.00
2013-11-4,66.5,53.0,37.0,46.7,41.6,36.2,98,68,40,30.39,30.28,14,3,18,0.00
2013-11-5,66.5,55.1,47.7,49.9,42.8,37.5,86,64,51,30.41,30.27,11,3,15,0.00
2013-11-6,72.9,62.6,48.5,62.9,57.0,43.6,96,82,69,30.27,30.05,14,3,18,0.00
2013-11-7,64.9,51.9,37.4,62.1,46.5,34.0,98,83,50,30.32,30.04,17,5,22,0.45
2013-11-8,59.9,43.8,31.2,40.8,35.4,29.9,97,76,38,30.40,30.26,17,2,21,0.00
2013-11-9,59.7,48.5,33.7,48.0,41.0,32.9,99,78,47,30.35,30.22,14,1,15,0.00
2013-11-10,70.2,54.2,40.6,50.0,46.0,39.5,97,77,42,30.33,30.22,13,1,13,0.00
2013-11-11,71.5,49.2,34.3,44.0,36.6,25.1,99,71,18,30.32,30.17,6,1,10,0.00
2013-11-12,56.2,42.7,32.4,46.2,32.6,17.6,99,69,43,30.53,30.17,22,7,29,0.00
2013-11-13,49.8,34.9,24.1,24.9,19.7,13.0,93,58,23,30.65,30.49,18,4,18,0.00
2013-11-14,58.4,37.4,21.1,31.5,25.1,19.6,97,69,25,30.52,30.27,11,1,11,0.00
2013-11-15,58.0,48.1,35.0,53.3,44.8,31.8,98,89,71,30.27,30.11,8,1,15,0.31
2013-11-16,65.4,58.0,50.4,61.7,56.2,49.9,99,94,87,30.18,30.06,9,2,12,0.00
2013-11-17,69.8,65.4,59.3,69.5,64.6,57.6,100,97,89,30.06,29.87,15,4,20,0.05
2013-11-18,70.2,59.8,44.0,69.9,46.8,33.9,99,66,30,30.13,29.90,14,4,23,0.07
2013-11-19,56.6,46.3,34.1,37.5,31.6,26.6,92,59,33,30.20,30.10,19,4,21,0.00
2013-11-20,61.8,50.6,33.8,43.2,37.4,30.6,89,62,46,30.27,30.14,12,3,15,0.00
2013-11-21,64.1,57.8,52.3,56.6,50.2,42.3,85,76,66,30.33,30.22,9,2,14,0.00
2013-11-22,63.8,59.8,56.4,60.8,57.4,52.9,99,92,84,30.28,30.17,7,1,10,0.17
2013-11-23,59.5,48.2,36.4,59.2,42.7,24.5,99,82,60,30.38,30.18,20,7,20,0.00
2013-11-24,43.7,33.9,27.8,24.8,18.8,13.4,78,56,29,30.55,30.38,16,6,20,0.00
2013-11-25,44.6,38.2,29.7,36.6,25.5,13.9,96,62,40,30.45,30.09,11,4,18,0.43
2013-11-26,47.5,40.9,36.2,47.0,40.1,35.2,99,97,94,30.09,29.75,18,6,24,1.09
2013-11-27,38.5,33.7,23.2,36.4,24.6,16.9,95,70,51,30.39,29.86,22,8,30,0.03
2013-11-28,49.8,30.0,16.8,28.2,20.3,15.0,95,72,30,30.51,30.38,6,1,9,0.00
2013-11-29,58.3,35.9,20.3,35.0,25.4,19.0,97,73,26,30.59,30.47,10,1,11,0.00
2013-11-30,57.3,39.3,24.9,36.0,30.3,23.9,98,75,35,30.54,30.31,11,1,11,0.00
2013-12-1,57.3,43.6,31.0,44.6,38.1,29.9,98,83,51,30.31,30.00,6,0,7,0.00
2013-12-2,53.3,50.1,46.4,52.4,49.3,44.4,99,97,89,30.00,29.80,4,1,6,0.26
2013-12-3,61.4,56.3,49.0,61.1,56.0,48.7,100,99,96,29.86,29.78,7,1,11,0.00
2013-12-4,72.2,66.2,60.8,66.3,64.0,60.2,99,93,80,29.98,29.84,14,4,20,0.00
2013-12-5,73.6,69.1,66.4,70.2,67.9,65.9,99,96,88,30.03,29.92,13,3,17,0.23
2013-12-6,75.7,62.9,38.7,69.8,60.3,37.5,97,92,79,30.20,29.91,21,7,29,0.28
2013-12-7,40.5,38.1,35.2,37.8,36.1,33.9,96,93,89,30.40,30.20,13,6,17,0.00
2013-12-8,55.0,47.5,40.6,55.0,47.0,37.9,100,98,90,30.27,30.06,8,1,12,2.04
2013-12-9,55.5,50.6,44.5,55.2,49.5,43.9,100,96,89,30.18,30.02,10,2,13,0.39
2013-12-10,44.4,36.6,26.2,44.1,33.9,25.2,99,91,67,30.40,30.02,14,3,22,0.21
2013-12-11,55.9,37.1,23.1,39.5,30.4,22.1,98,80,39,30.48,30.37,9,1,11,0.01
2013-12-12,45.5,33.7,25.7,29.0,22.5,11.5,91,68,26,30.57,30.41,15,3,17,0.00
2013-12-13,49.0,37.4,22.9,35.8,27.3,20.9,95,70,37,30.42,30.12,5,1,7,0.00
2013-12-14,56.5,50.0,40.7,55.5,47.9,33.1,99,92,72,30.12,29.82,16,3,21,0.77
2013-12-15,40.8,36.5,31.5,38.7,32.9,29.2,92,87,81,30.30,29.99,15,4,20,0.00
2013-12-16,56.9,38.0,25.9,38.2,31.0,24.9,98,80,36,30.34,30.21,12,1,15,0.00
2013-12-17,62.3,44.5,27.3,41.5,35.5,26.6,98,74,42,30.30,30.15,16,3,19,0.00
2013-12-18,57.0,38.9,25.4,36.8,29.7,24.4,98,74,32,30.40,30.28,6,1,9,0.00
2013-12-19,62.5,43.2,26.7,39.3,32.3,25.7,97,70,31,30.34,30.15,10,2,15,0.00
2013-12-20,66.4,57.8,44.7,59.0,49.1,35.7,92,73,58,30.17,30.02,14,3,18,0.00
2013-12-21,73.1,66.9,58.9,68.7,64.6,57.0,99,93,85,30.02,29.79,24,8,30,0.16
2013-12-22,71.2,56.8,53.1,68.1,55.8,52.8,99,96,85,30.11,29.78,17,3,28,1.76
2013-12-23,53.1,42.5,31.9,52.8,39.7,27.9,99,90,79,30.43,30.07,15,5,19,0.07
2013-12-24,38.6,30.7,21.5,28.0,24.3,20.0,95,78,54,30.54,30.42,16,4,18,0.00
2013-12-25,49.2,30.2,18.4,30.8,23.8,17.0,96,80,45,30.49,30.34,7,1,10,0.00
2013-12-26,54.2,36.2,25.0,35.0,29.3,24.0,98,80,41,30.43,30.31,7,1,11,0.00
2013-12-27,52.8,36.2,23.4,35.1,29.5,22.4,98,80,42,30.48,30.36,9,1,12,0.01
2013-12-28,41.8,39.8,34.1,40.7,37.9,32.3,98,93,80,30.38,29.94,12,3,18,0.89
2013-12-29,52.3,43.4,37.8,46.0,41.6,36.9,99,94,74,30.11,29.92,9,1,11,0.04
2013-12-30,46.9,41.4,34.0,43.5,39.4,33.5,99,93,85,30.29,30.10,6,1,7,0.00
2013-12-31,43.1,37.0,31.0,35.4,32.3,28.9,96,84,59,30.47,30.28,12,2,14,0.00
2014-1-1,51.3,40.0,28.0,43.1,36.1,27.3,98,87,65,30.37,30.09,8,2,13,0.00
2014-1-2,51.1,40.4,24.9,50.8,37.0,15.8,99,88,66,30.33,29.88,22,6,28,0.28